createdAt,value
2018-09-29T00:02:27.422Z,8.70
2018-09-29T00:04:56.062Z,7.20
2018-09-29T00:07:24.630Z,7.70
2018-09-29T00:09:53.142Z,7.05
2018-09-29T00:12:22.294Z,6.12
2018-09-29T00:14:50.834Z,6.90
2018-09-29T00:17:19.675Z,8.13
2018-09-29T00:19:48.622Z,7.85
2018-09-29T00:22:17.173Z,10.72
2018-09-29T00:24:45.837Z,6.75
2018-09-29T00:27:14.354Z,6.33
2018-09-29T00:29:43.031Z,7.83
2018-09-29T00:32:11.647Z,7.10
2018-09-29T00:34:40.546Z,6.83
2018-09-29T00:37:09.193Z,5.37
2018-09-29T00:39:37.758Z,6.62
2018-09-29T00:42:06.319Z,6.75
2018-09-29T00:44:34.969Z,8.33
2018-09-29T00:47:03.557Z,6.83
2018-09-29T00:49:32.145Z,8.55
2018-09-29T00:52:00.758Z,7.03
2018-09-29T00:54:30.125Z,8.20
2018-09-29T00:56:58.657Z,9.88
2018-09-29T00:59:27.205Z,8.15
2018-09-29T01:01:55.706Z,8.78
2018-09-29T01:04:38.994Z,8.40
2018-09-29T01:07:07.566Z,8.65
2018-09-29T01:09:36.150Z,10.55
2018-09-29T01:12:04.822Z,7.15
2018-09-29T01:14:33.349Z,10.18
2018-09-29T01:17:01.881Z,8.05
2018-09-29T01:19:30.493Z,9.40
2018-09-29T01:21:59.033Z,8.55
2018-09-29T01:24:27.765Z,10.00
2018-09-29T01:26:56.345Z,9.53
2018-09-29T01:29:24.958Z,11.53
2018-09-29T01:31:53.530Z,11.83
2018-09-29T01:34:22.093Z,8.68
2018-09-29T01:36:51.105Z,7.97
2018-09-29T01:39:19.693Z,12.53
2018-09-29T01:41:49.205Z,11.35
2018-09-29T01:44:17.757Z,11.00
2018-09-29T01:46:46.345Z,12.05
2018-09-29T01:49:15.261Z,11.70
2018-09-29T01:51:43.861Z,11.15
2018-09-29T01:54:12.339Z,9.78
2018-09-29T01:56:40.873Z,8.15
2018-09-29T01:59:10.045Z,10.45
2018-09-29T02:01:38.581Z,9.03
2018-09-29T02:04:07.613Z,11.38
2018-09-29T02:06:36.500Z,8.75
2018-09-29T02:09:05.790Z,9.13
2018-09-29T02:11:34.349Z,9.08
2018-09-29T02:14:02.865Z,8.80
2018-09-29T02:16:31.403Z,9.85
2018-09-29T02:19:00.237Z,10.03
2018-09-29T02:21:28.816Z,7.83
2018-09-29T02:23:57.484Z,9.80
2018-09-29T02:26:26.109Z,10.32
2018-09-29T02:28:54.663Z,11.90
2018-09-29T02:31:23.164Z,13.10
2018-09-29T02:33:52.121Z,9.50
2018-09-29T02:36:20.637Z,7.95
2018-09-29T02:38:49.225Z,7.45
2018-09-29T02:41:17.810Z,10.80
2018-09-29T02:43:47.869Z,9.40
2018-09-29T02:46:16.878Z,9.95
2018-09-29T02:48:45.400Z,9.73
2018-09-29T02:51:13.956Z,12.28
2018-09-29T02:53:42.653Z,7.25
2018-09-29T02:56:11.345Z,8.30
2018-09-29T02:58:40.237Z,12.45
2018-09-29T03:01:09.128Z,9.60
2018-09-29T03:03:37.653Z,7.22
2018-09-29T03:06:05.780Z,8.48
2018-09-29T03:08:34.324Z,8.28
2018-09-29T03:11:02.920Z,7.08
2018-09-29T03:13:31.509Z,8.83
2018-09-29T03:16:00.073Z,11.03
2018-09-29T03:18:28.676Z,8.58
2018-09-29T03:20:57.604Z,8.75
2018-09-29T03:23:26.209Z,8.13
2018-09-29T03:25:54.689Z,9.90
2018-09-29T03:28:23.217Z,8.10
2018-09-29T03:30:51.784Z,9.25
2018-09-29T03:33:20.596Z,8.78
2018-09-29T03:35:49.104Z,7.97
2018-09-29T03:38:17.885Z,9.33
2018-09-29T03:40:46.744Z,8.43
2018-09-29T03:43:15.233Z,9.05
2018-09-29T03:45:44.228Z,8.55
2018-09-29T03:48:12.968Z,9.37
2018-09-29T03:50:41.520Z,6.55
2018-09-29T03:53:10.052Z,8.25
2018-09-29T03:55:39.388Z,9.80
2018-09-29T03:58:07.968Z,8.30
2018-09-29T04:00:36.680Z,9.15
2018-09-29T04:03:05.276Z,13.65
2018-09-29T04:05:34.128Z,10.13
2018-09-29T04:08:02.680Z,12.18
2018-09-29T04:10:31.244Z,12.82
2018-09-29T04:12:59.903Z,10.13
2018-09-29T04:15:28.472Z,8.30
2018-09-29T04:17:57.060Z,7.78
2018-09-29T04:20:25.607Z,6.27
2018-09-29T04:22:54.203Z,5.62
2018-09-29T04:25:23.032Z,7.70
2018-09-29T04:27:51.571Z,6.22
2018-09-29T04:30:20.160Z,6.95
2018-09-29T04:32:48.704Z,5.90
2018-09-29T04:35:17.283Z,4.87
2018-09-29T04:37:45.816Z,4.22
2018-09-29T04:40:14.390Z,6.47
2018-09-29T04:42:43.699Z,8.25
2018-09-29T04:45:12.303Z,6.17
2018-09-29T04:47:41.239Z,5.30
2018-09-29T04:50:09.771Z,7.70
2018-09-29T04:52:38.379Z,5.60
2018-09-29T04:55:07.244Z,4.37
2018-09-29T04:57:36.027Z,2.45
2018-09-29T05:00:05.119Z,2.35
2018-09-29T05:02:33.668Z,8.05
2018-09-29T05:05:02.803Z,5.33
2018-09-29T05:07:31.303Z,5.67
2018-09-29T05:10:00.175Z,3.92
2018-09-29T05:12:28.723Z,3.62
2018-09-29T05:14:57.267Z,1.42
2018-09-29T05:17:25.880Z,1.85
2018-09-29T05:19:54.582Z,0.68
2018-09-29T05:22:23.123Z,0.50
2018-09-29T05:24:51.655Z,2.20
2018-09-29T05:27:20.208Z,0.50
2018-09-29T05:29:48.763Z,1.15
2018-09-29T05:32:17.319Z,2.22
2018-09-29T05:34:45.876Z,1.52
2018-09-29T05:37:14.459Z,1.37
2018-09-29T05:39:43.003Z,1.52
2018-09-29T05:42:11.876Z,3.42
2018-09-29T05:44:40.407Z,2.40
2018-09-29T05:47:09.355Z,2.22
2018-09-29T05:49:37.891Z,1.82
2018-09-29T05:52:06.515Z,1.65
2018-09-29T05:54:35.331Z,2.40
2018-09-29T05:57:04.387Z,1.12
2018-09-29T05:59:32.939Z,2.67
2018-09-29T06:02:01.747Z,3.37
2018-09-29T06:04:30.331Z,1.77
2018-09-29T06:06:58.895Z,0.85
2018-09-29T06:09:27.427Z,1.55
2018-09-29T06:11:56.012Z,2.72
2018-09-29T06:14:24.553Z,1.45
2018-09-29T06:16:53.160Z,0.70
2018-09-29T06:19:21.712Z,2.10
2018-09-29T06:21:50.415Z,2.33
2018-09-29T06:24:18.975Z,1.12
2018-09-29T06:26:47.568Z,2.05
2018-09-29T06:29:16.119Z,1.75
2018-09-29T06:31:44.968Z,0.75
2018-09-29T06:34:13.741Z,1.25
2018-09-29T06:36:42.365Z,2.55
2018-09-29T06:39:11.927Z,3.40
2018-09-29T06:41:40.528Z,2.25
2018-09-29T06:45:11.951Z,2.33
2018-09-29T06:47:40.496Z,4.30
2018-09-29T06:50:09.367Z,2.58
2018-09-29T06:52:37.923Z,3.55
2018-09-29T06:55:06.504Z,3.52
2018-09-29T06:57:35.219Z,4.30
2018-09-29T07:00:04.859Z,5.93
2018-09-29T07:02:33.472Z,6.70
2018-09-29T07:05:02.040Z,5.80
2018-09-29T07:07:30.767Z,8.65
2018-09-29T07:09:59.691Z,6.22
2018-09-29T07:12:28.348Z,10.72
2018-09-29T07:15:00.203Z,14.33
2018-09-29T07:17:28.914Z,12.82
2018-09-29T07:19:57.531Z,8.10
2018-09-29T07:22:26.153Z,6.85
2018-09-29T07:24:54.807Z,6.97
2018-09-29T07:27:23.522Z,4.00
2018-09-29T07:29:52.275Z,1.90
2018-09-29T07:32:21.390Z,2.30
2018-09-29T07:34:50.583Z,4.25
2018-09-29T07:37:19.335Z,3.13
2018-09-29T07:39:48.047Z,3.77
2018-09-29T07:42:16.704Z,2.80
2018-09-29T07:44:45.558Z,2.75
2018-09-29T07:47:14.542Z,1.45
2018-09-29T07:49:43.154Z,1.80
2018-09-29T07:52:11.712Z,2.45
2018-09-29T07:54:40.258Z,2.62
2018-09-29T07:57:11.748Z,2.15
2018-09-29T07:59:40.374Z,2.00
2018-09-29T08:02:08.987Z,2.70
2018-09-29T08:04:37.506Z,4.12
2018-09-29T08:07:06.081Z,1.55
2018-09-29T08:09:34.762Z,0.60
2018-09-29T08:12:03.582Z,2.47
2018-09-29T08:14:32.237Z,1.67
2018-09-29T08:17:00.850Z,1.70
2018-09-29T08:19:29.402Z,4.37
2018-09-29T08:21:58.014Z,2.12
2018-09-29T08:24:26.917Z,1.17
2018-09-29T08:26:55.445Z,1.50
2018-09-29T08:29:24.318Z,2.98
2018-09-29T08:31:53.153Z,1.67
2018-09-29T08:34:21.734Z,0.88
2018-09-29T08:36:50.649Z,0.82
2018-09-29T08:39:19.234Z,1.93
2018-09-29T08:41:47.890Z,1.00
2018-09-29T08:44:16.613Z,1.50
2018-09-29T08:46:45.287Z,1.92
2018-09-29T08:49:13.873Z,3.08
2018-09-29T08:51:42.430Z,0.90
2018-09-29T08:54:11.058Z,1.43
2018-09-29T08:57:10.318Z,1.40
2018-09-29T08:59:38.882Z,1.80
2018-09-29T09:02:07.567Z,1.50
2018-09-29T09:04:36.261Z,5.90
2018-09-29T09:07:05.694Z,3.35
2018-09-29T09:09:34.452Z,2.08
2018-09-29T09:12:03.474Z,3.65
2018-09-29T09:14:32.126Z,1.70
2018-09-29T09:17:00.781Z,3.98
2018-09-29T09:19:29.449Z,2.05
2018-09-29T09:21:58.113Z,2.33
2018-09-29T09:24:26.714Z,4.10
2018-09-29T09:26:55.401Z,2.22
2018-09-29T09:29:24.657Z,3.02
2018-09-29T09:31:53.557Z,2.72
2018-09-29T09:34:22.226Z,3.00
2018-09-29T09:36:50.885Z,1.30
2018-09-29T09:39:19.757Z,3.25
2018-09-29T09:41:48.385Z,0.93
2018-09-29T09:44:17.021Z,1.00
2018-09-29T09:46:45.665Z,1.15
2018-09-29T09:49:14.477Z,0.62
2018-09-29T09:51:43.137Z,0.60
2018-09-29T09:54:11.669Z,0.88
2018-09-29T09:56:40.190Z,1.30
2018-09-29T09:59:08.728Z,1.15
2018-09-29T10:01:42.884Z,1.22
2018-09-29T10:04:11.557Z,3.20
2018-09-29T10:06:40.224Z,1.40
2018-09-29T10:09:11.792Z,0.28
2018-09-29T10:11:40.656Z,0.53
2018-09-29T10:14:10.091Z,0.90
2018-09-29T10:16:38.868Z,0.55
2018-09-29T10:19:07.751Z,0.62
2018-09-29T10:21:36.571Z,5.62
2018-09-29T10:24:05.391Z,1.35
2018-09-29T10:26:35.362Z,10.75
2018-09-29T10:29:04.857Z,0.80
2018-09-29T10:31:33.811Z,1.25
2018-09-29T10:34:02.604Z,1.30
2018-09-29T10:36:31.230Z,1.22
2018-09-29T10:38:59.680Z,1.00
2018-09-29T10:41:28.175Z,0.50
2018-09-29T10:43:57.127Z,1.60
2018-09-29T10:46:25.610Z,1.00
2018-09-29T10:48:54.075Z,0.68
2018-09-29T10:51:22.531Z,0.82
2018-09-29T10:53:51.743Z,1.60
2018-09-29T10:59:51.439Z,1.60
2018-09-29T11:02:19.986Z,0.95
2018-09-29T11:04:48.490Z,3.40
2018-09-29T11:07:17.019Z,1.25
2018-09-29T11:09:45.483Z,0.60
2018-09-29T11:12:13.947Z,0.60
2018-09-29T11:14:42.406Z,0.57
2018-09-29T11:17:10.855Z,2.17
2018-09-29T11:19:53.851Z,0.50
2018-09-29T11:22:22.427Z,1.05
2018-09-29T11:24:50.907Z,0.72
2018-09-29T11:27:19.355Z,1.22
2018-09-29T11:29:48.347Z,0.40
2018-09-29T11:32:16.806Z,1.45
2018-09-29T11:34:45.379Z,0.55
2018-09-29T11:37:14.074Z,1.15
2018-09-29T11:39:42.561Z,1.67
2018-09-29T11:42:11.388Z,2.33
2018-09-29T11:44:39.885Z,1.45
2018-09-29T11:47:08.395Z,1.62
2018-09-29T11:49:36.863Z,0.60
2018-09-29T11:52:05.338Z,2.67
2018-09-29T11:54:33.870Z,0.93
2018-09-29T11:57:02.314Z,2.02
2018-09-29T11:59:31.494Z,0.50
2018-09-29T12:02:00.007Z,0.53
2018-09-29T12:04:28.725Z,0.68
2018-09-29T12:06:57.443Z,0.62
2018-09-29T12:09:25.910Z,0.68
2018-09-29T12:11:54.386Z,3.98
2018-09-29T12:14:22.941Z,0.65
2018-09-29T12:16:51.509Z,0.57
2018-09-29T12:19:20.092Z,0.57
2018-09-29T12:21:48.705Z,1.32
2018-09-29T12:24:17.669Z,2.47
2018-09-29T12:26:46.142Z,0.90
2018-09-29T12:29:14.613Z,1.22
2018-09-29T12:31:43.082Z,0.65
2018-09-29T12:34:11.741Z,1.55
2018-09-29T12:36:40.253Z,0.35
2018-09-29T12:42:03.257Z,2.25
2018-09-29T12:44:31.768Z,0.45
2018-09-29T12:47:06.889Z,1.50
2018-09-29T12:49:35.393Z,1.15
2018-09-29T12:52:05.167Z,0.62
2018-09-29T12:54:33.968Z,1.27
2018-09-29T12:57:02.516Z,0.70
2018-09-29T12:59:31.108Z,0.53
2018-09-29T13:01:59.581Z,0.23
2018-09-29T13:04:28.099Z,1.85
2018-09-29T13:06:57.197Z,0.65
2018-09-29T13:09:25.929Z,2.70
2018-09-29T13:11:54.481Z,1.82
2018-09-29T13:14:22.936Z,0.80
2018-09-29T13:16:52.070Z,3.08
2018-09-29T13:19:20.544Z,2.20
2018-09-29T13:21:48.992Z,1.67
2018-09-29T13:24:17.720Z,2.17
2018-09-29T13:26:46.217Z,2.92
2018-09-29T13:29:14.664Z,1.82
2018-09-29T13:31:43.517Z,3.60
2018-09-29T13:34:11.972Z,2.03
2018-09-29T13:36:40.436Z,0.82
2018-09-29T13:39:09.400Z,1.85
2018-09-29T13:41:37.836Z,1.02
2018-09-29T13:44:06.497Z,2.52
2018-09-29T13:46:34.982Z,4.17
2018-09-29T13:49:03.518Z,5.80
2018-09-29T13:51:32.608Z,6.85
2018-09-29T13:54:01.081Z,2.42
2018-09-29T13:56:29.632Z,1.80
2018-09-29T13:58:58.128Z,1.77
2018-09-29T14:01:26.600Z,5.40
2018-09-29T14:03:55.076Z,2.65
2018-09-29T14:06:23.585Z,2.27
2018-09-29T14:08:52.064Z,3.00
2018-09-29T14:11:20.952Z,6.27
2018-09-29T14:13:49.509Z,2.25
2018-09-29T14:16:17.981Z,1.35
2018-09-29T14:18:46.722Z,1.15
2018-09-29T14:21:26.906Z,0.50
2018-09-29T14:23:56.402Z,0.60
2018-09-29T14:26:24.925Z,0.55
2018-09-29T14:28:56.833Z,0.80
2018-09-29T14:31:25.630Z,0.90
2018-09-29T14:33:54.093Z,0.60
2018-09-29T14:36:22.586Z,1.07
2018-09-29T14:38:51.246Z,1.25
2018-09-29T14:41:24.258Z,3.80
2018-09-29T14:43:53.187Z,1.05
2018-09-29T14:46:21.749Z,0.70
2018-09-29T14:48:50.431Z,0.50
2018-09-29T14:51:19.054Z,2.25
2018-09-29T14:53:48.095Z,4.67
2018-09-29T14:56:16.634Z,2.62
2018-09-29T14:58:45.811Z,3.37
2018-09-29T15:01:14.358Z,3.70
2018-09-29T15:03:43.238Z,6.03
2018-09-29T15:06:11.764Z,3.85
2018-09-29T15:08:40.258Z,2.33
2018-09-29T15:11:09.350Z,4.83
2018-09-29T15:13:37.850Z,2.83
2018-09-29T15:16:06.493Z,4.10
2018-09-29T15:18:35.033Z,3.22
2018-09-29T15:21:04.148Z,2.80
2018-09-29T15:23:32.609Z,1.90
2018-09-29T15:26:01.083Z,1.80
2018-09-29T15:28:29.593Z,0.78
2018-09-29T15:30:58.192Z,1.40
2018-09-29T15:33:26.789Z,1.30
2018-09-29T15:35:55.284Z,3.80
2018-09-29T15:38:23.836Z,1.87
2018-09-29T15:40:52.292Z,2.30
2018-09-29T15:43:20.876Z,4.97
2018-09-29T15:45:49.333Z,3.00
2018-09-29T15:48:17.844Z,3.10
2018-09-29T15:50:46.328Z,2.15
2018-09-29T15:53:14.805Z,3.92
2018-09-29T15:55:43.672Z,4.17
2018-09-29T15:58:12.392Z,3.85
2018-09-29T16:00:40.829Z,5.62
2018-09-29T16:03:09.260Z,5.42
2018-09-29T16:05:37.872Z,5.80
2018-09-29T16:08:06.308Z,4.45
2018-09-29T16:10:36.081Z,4.22
2018-09-29T16:13:05.044Z,6.22
2018-09-29T16:15:34.376Z,7.28
2018-09-29T16:18:03.256Z,5.03
2018-09-29T16:20:32.420Z,6.17
2018-09-29T16:23:00.894Z,8.10
2018-09-29T16:25:29.332Z,6.45
2018-09-29T16:27:58.117Z,6.42
2018-09-29T16:30:26.692Z,7.67
2018-09-29T16:32:55.232Z,8.53
2018-09-29T16:35:23.700Z,6.92
2018-09-29T16:37:54.149Z,7.08
2018-09-29T16:40:23.095Z,11.03
2018-09-29T16:42:51.568Z,6.28
2018-09-29T16:45:20.028Z,8.68
2018-09-29T16:47:48.786Z,7.62
2018-09-29T16:50:17.360Z,7.65
2018-09-29T16:52:45.800Z,8.40
2018-09-29T16:55:14.300Z,14.55
2018-09-29T16:57:42.792Z,11.70
2018-09-29T17:00:11.296Z,17.65
2018-09-29T17:02:39.985Z,9.30
2018-09-29T17:10:55.841Z,12.47
2018-09-29T17:13:24.852Z,14.47
2018-09-29T17:15:53.663Z,11.35
2018-09-29T17:18:22.256Z,11.33
2018-09-29T17:20:51.403Z,14.47
2018-09-29T17:23:20.000Z,11.20
2018-09-29T17:25:49.105Z,12.63
2018-09-29T17:28:18.096Z,11.30
2018-09-29T17:30:46.774Z,11.43
2018-09-29T17:33:15.480Z,17.02
2018-09-29T17:35:44.255Z,19.35
2018-09-29T17:38:12.784Z,22.50
2018-09-29T17:40:41.692Z,24.25
2018-09-29T17:43:10.160Z,24.10
2018-09-29T17:45:38.935Z,21.62
2018-09-29T17:48:07.627Z,23.10
2018-09-29T17:50:36.295Z,25.05
2018-09-29T17:53:04.932Z,21.62
2018-09-29T17:55:33.667Z,22.32
2018-09-29T17:58:03.746Z,25.85
2018-09-29T18:00:32.499Z,23.70
2018-09-29T18:03:01.392Z,32.42
2018-09-29T18:05:30.003Z,30.92
2018-09-29T18:07:58.570Z,33.35
2018-09-29T18:10:27.035Z,24.37
2018-09-29T18:12:55.487Z,29.70
2018-09-29T18:15:24.171Z,24.37
2018-09-29T18:17:52.810Z,27.17
2018-09-29T18:20:21.503Z,23.83
2018-09-29T18:22:49.998Z,28.55
2018-09-29T18:25:18.583Z,30.43
2018-09-29T18:27:47.274Z,31.77
2018-09-29T18:30:16.903Z,31.60
2018-09-29T18:32:45.723Z,28.90
2018-09-29T18:35:15.195Z,25.97
2018-09-29T18:37:43.742Z,28.00
2018-09-29T18:40:13.411Z,28.55
2018-09-29T18:42:43.103Z,30.85
2018-09-29T18:45:11.895Z,39.33
2018-09-29T18:47:44.163Z,34.98
2018-09-29T18:50:15.998Z,38.70
2018-09-29T18:52:45.907Z,41.18
2018-09-29T18:55:14.779Z,41.33
2018-09-29T18:57:46.227Z,39.53
2018-09-29T19:00:17.283Z,38.60
2018-09-29T19:02:47.870Z,38.38
2018-09-29T19:05:18.619Z,35.70
2018-09-29T19:07:47.367Z,39.98
2018-09-29T19:10:16.495Z,43.63
2018-09-29T19:12:45.170Z,33.25
2018-09-29T19:15:13.823Z,37.17
2018-09-29T19:17:42.447Z,36.17
2018-09-29T19:20:14.583Z,36.55
2018-09-29T19:22:53.918Z,36.95
2018-09-29T19:25:46.791Z,41.13
2018-09-29T19:28:34.642Z,35.07
2018-09-29T19:31:23.422Z,31.44
2018-09-29T19:34:11.505Z,34.67
2018-09-29T19:36:40.909Z,36.73
2018-09-29T19:39:09.570Z,37.93
2018-09-29T19:41:38.078Z,35.23
2018-09-29T19:44:06.634Z,30.82
2018-09-29T19:46:35.254Z,37.28
2018-09-29T19:49:04.150Z,36.55
2018-09-29T19:51:32.670Z,32.80
2018-09-29T19:54:01.390Z,34.50
2018-09-29T19:56:30.271Z,37.42
2018-09-29T19:58:58.911Z,37.33
2018-09-29T20:01:27.715Z,35.73
2018-09-29T20:03:56.323Z,34.53
2018-09-29T20:06:25.519Z,34.20
2018-09-29T20:08:54.035Z,31.60
2018-09-29T20:11:22.711Z,33.03
2018-09-29T20:13:51.223Z,27.77
2018-09-29T20:16:19.836Z,34.53
2018-09-29T20:18:48.663Z,29.05
2018-09-29T20:21:36.275Z,22.77
2018-09-29T20:42:50.911Z,23.32
2018-09-29T20:45:19.798Z,23.37
2018-09-29T20:47:50.902Z,23.73
2018-09-29T20:50:19.388Z,28.80
2018-09-29T20:52:58.811Z,20.43
2018-09-29T20:55:30.823Z,23.98
2018-09-29T20:57:59.586Z,24.98
2018-09-29T21:00:28.075Z,24.07
2018-09-29T21:02:56.578Z,20.02
2018-09-29T21:05:25.707Z,19.82
2018-09-29T21:07:55.766Z,19.35
2018-09-29T21:10:24.483Z,17.12
2018-09-29T21:12:53.304Z,19.87
2018-09-29T21:15:23.119Z,19.20
2018-09-29T21:17:51.643Z,20.75
2018-09-29T21:20:20.162Z,25.20
2018-09-29T21:22:48.598Z,18.82
2018-09-29T21:25:17.034Z,23.15
2018-09-29T21:27:45.514Z,20.12
2018-09-29T21:30:14.097Z,13.43
2018-09-29T21:32:42.570Z,16.75
2018-09-29T21:35:11.385Z,16.93
2018-09-29T21:37:40.072Z,13.95
2018-09-29T21:40:08.597Z,16.97
2018-09-29T21:42:37.079Z,14.47
2018-09-29T21:45:05.677Z,14.70
2018-09-29T21:47:34.248Z,14.38
2018-09-29T21:50:02.856Z,14.63
2018-09-29T21:52:31.337Z,12.82
2018-09-29T21:55:00.004Z,14.30
2018-09-29T21:57:28.664Z,12.15
2018-09-29T22:00:02.192Z,18.60
2018-09-29T22:02:30.644Z,12.60
2018-09-29T22:04:59.081Z,9.70
2018-09-29T22:07:27.616Z,11.88
2018-09-29T22:09:56.236Z,14.23
2018-09-29T22:12:24.680Z,12.20
2018-09-29T22:14:53.169Z,11.30
2018-09-29T22:17:21.997Z,14.53
2018-09-29T22:19:50.648Z,12.47
2018-09-29T22:22:19.484Z,27.25
2018-09-29T22:24:48.383Z,14.73
2018-09-29T22:27:16.832Z,12.33
2018-09-29T22:29:45.396Z,13.22
2018-09-29T22:32:13.832Z,10.48
2018-09-29T22:34:42.343Z,11.33
2018-09-29T22:37:10.915Z,10.95
2018-09-29T22:39:39.447Z,11.43
2018-09-29T22:42:08.240Z,13.58
2018-09-29T22:44:36.729Z,10.23
2018-09-29T22:47:10.272Z,11.93
2018-09-29T22:49:38.816Z,12.10
2018-09-29T22:52:07.303Z,12.43
2018-09-29T22:54:35.912Z,10.90
2018-09-29T22:57:07.263Z,16.00
2018-09-29T22:59:35.772Z,13.48
2018-09-29T23:02:04.975Z,12.50
2018-09-29T23:04:33.464Z,12.05
2018-09-29T23:07:03.771Z,10.08
2018-09-29T23:09:32.259Z,9.10
2018-09-29T23:12:02.852Z,11.15
2018-09-29T23:14:31.381Z,8.60
2018-09-29T23:17:00.004Z,11.12
2018-09-29T23:19:28.977Z,9.38
2018-09-29T23:21:57.512Z,9.33
2018-09-29T23:24:25.952Z,9.38
2018-09-29T23:26:54.403Z,7.53
2018-09-29T23:29:22.868Z,7.97
2018-09-29T23:31:51.332Z,10.55
2018-09-29T23:34:19.783Z,8.87
2018-09-29T23:36:48.276Z,10.38
2018-09-29T23:39:16.723Z,7.33
2018-09-29T23:41:45.184Z,9.95
2018-09-29T23:44:13.787Z,8.15
2018-09-29T23:46:42.351Z,8.25
2018-09-29T23:49:10.923Z,10.23
2018-09-29T23:51:39.415Z,7.92
2018-09-29T23:54:07.898Z,7.40
2018-09-29T23:56:36.379Z,9.93
2018-09-29T23:59:04.991Z,8.00
